Time;durP1;ratioP1;P1;durP2;ratioP2;P2;SDS_P1;SDS_P2;PMS_P1;PMS_P2;Temp;Humidity;BMP_temperature;BMP_pressure;BME280_temperature;BME280_humidity;BME280_pressure;Samples;Min_cycle;Max_cycle;Signal;HPM_P1;HPM_P2
2022/06/20 00:01:28;;;;;;;;;;;;;;;;;;5034879;28;19915;-73
2022/06/20 00:03:54;;;;;;;;;;;;;;;;;;5034259;28;20276;-74
2022/06/20 00:06:20;;;;;;;;;;;;;;;;;;5034244;28;19909;-72
2022/06/20 00:08:47;;;;;;;;;;;;;;;;;;5034142;28;19935;-73
2022/06/20 00:11:13;;;;;;;;;;;;;;;;;;5034192;28;20296;-73
2022/06/20 00:13:39;;;;;;;;;;;;;;;;;;5034114;28;19913;-73
2022/06/20 00:16:04;;;;;;;;;;;;;;;;;;5034109;28;20266;-73
2022/06/20 00:18:30;;;;;;;;;;;;;;;;;;5034316;28;19956;-74
2022/06/20 00:20:56;;;;;;;;;;;;;;;;;;5032693;28;20341;-74
2022/06/20 00:23:22;;;;;;;;;;;;;;;;;;5033933;28;19909;-73
2022/06/20 00:25:48;;;;;;;;;;;;;;;;;;5034222;28;19916;-73
2022/06/20 00:28:14;;;;;;;;;;;;;;;;;;5034100;28;19913;-73
2022/06/20 00:30:40;;;;;;;;;;;;;;;;;;5034451;28;19909;-73
2022/06/20 00:33:06;;;;;;;;;;;;;;;;;;5033870;28;20003;-73
2022/06/20 00:35:31;;;;;;;;;;;;;;;;;;5033807;28;19959;-74
2022/06/20 00:37:58;;;;;;;;;;;;;;;;;;5033968;28;19909;-72
2022/06/20 00:40:23;;;;;;;;;;;;;;;;;;5034014;28;19909;-73
2022/06/20 00:42:49;;;;;;;;;;;;;;;;;;5033329;28;19931;-73
2022/06/20 00:45:15;;;;;;;;;;;;;;;;;;5034259;28;19917;-73
2022/06/20 00:47:41;;;;;;;;;;;;;;;;;;5033612;28;19913;-74
2022/06/20 00:50:07;;;;;;;;;;;;;;;;;;5033928;28;19975;-74
2022/06/20 00:52:33;;;;;;;;;;;;;;;;;;5032363;28;19909;-73
2022/06/20 00:54:59;;;;;;;;;;;;;;;;;;5032293;28;19956;-74
2022/06/20 00:57:25;;;;;;;;;;;;;;;;;;5033556;28;19910;-73
2022/06/20 00:59:51;;;;;;;;;;;;;;;;;;5033855;28;19909;-74
2022/06/20 01:02:17;;;;;;;;;;;;;;;;;;5036044;28;19909;-74
2022/06/20 01:04:43;;;;;;;;;;;;;;;;;;5037586;28;19960;-73
2022/06/20 01:07:09;;;;;;;;;;;;;;;;;;5037579;28;19936;-74
2022/06/20 01:09:35;;;;;;;;;;;;;;;;;;5037439;28;19912;-74
2022/06/20 01:12:04;;;;;;;;;;;;;;;;;;5037438;28;20008;-74
2022/06/20 01:14:34;;;;;;;;;;;;;;;;;;5037975;28;19917;-73
2022/06/20 01:16:59;;;;;;;;;;;;;;;;;;5037358;28;19920;-73
2022/06/20 01:19:25;;;;;;;;;;;;;;;;;;5037639;28;19909;-73
2022/06/20 01:21:51;;;;;;;;;;;;;;;;;;5037305;28;19909;-72
2022/06/20 01:24:21;;;;;;;;;;;;;;;;;;5037270;28;20412;-73
2022/06/20 01:26:47;;;;;;;;;;;;;;;;;;5037497;28;19909;-74
2022/06/20 01:29:13;;;;;;;;;;;;;;;;;;5037088;28;19922;-74
2022/06/20 01:31:39;;;;;;;;;;;;;;;;;;5037651;28;19940;-74
2022/06/20 01:34:05;;;;;;;;;;;;;;;;;;5037071;28;19952;-73
2022/06/20 01:39:15;;;;;;;;;;;;;;;;;;5036973;28;19916;-73
2022/06/20 01:44:25;;;;;;;;;;;;;;;;;;5036654;28;20399;-73
2022/06/20 01:46:51;;;;;;;;;;;;;;;;;;5036843;28;19949;-73
2022/06/20 01:49:19;;;;;;;;;;;;;;;;;;5037048;28;19919;-74
2022/06/20 01:51:45;;;;;;;;;;;;;;;;;;5035502;28;19955;-73
2022/06/20 01:54:11;;;;;;;;;;;;;;;;;;5036748;28;20285;-74
2022/06/20 01:56:36;;;;;;;;;;;;;;;;;;5036957;28;19909;-74
2022/06/20 01:59:02;;;;;;;;;;;;;;;;;;5036602;28;19957;-73
2022/06/20 02:01:29;;;;;;;;;;;;;;;;;;5036593;28;19913;-74
2022/06/20 02:03:55;;;;;;;;;;;;;;;;;;5036529;28;19916;-73
2022/06/20 02:06:21;;;;;;;;;;;;;;;;;;5036475;28;19909;-74
2022/06/20 02:08:47;;;;;;;;;;;;;;;;;;5036918;28;19968;-73
2022/06/20 02:11:12;;;;;;;;;;;;;;;;;;5036678;28;19958;-73
2022/06/20 02:13:38;;;;;;;;;;;;;;;;;;5035164;28;20358;-73
2022/06/20 02:16:04;;;;;;;;;;;;;;;;;;5036586;28;19909;-73
2022/06/20 02:18:30;;;;;;;;;;;;;;;;;;5036304;28;20393;-74
2022/06/20 02:20:56;;;;;;;;;;;;;;;;;;5036255;28;19956;-74
2022/06/20 02:23:22;;;;;;;;;;;;;;;;;;5036185;28;19912;-73
2022/06/20 02:25:48;;;;;;;;;;;;;;;;;;5036363;28;19963;-74
2022/06/20 02:28:14;;;;;;;;;;;;;;;;;;5036006;28;19975;-73
2022/06/20 02:30:40;;;;;;;;;;;;;;;;;;5036308;28;19941;-74
2022/06/20 02:33:06;;;;;;;;;;;;;;;;;;5035988;28;19916;-73
2022/06/20 02:35:32;;;;;;;;;;;;;;;;;;5036241;28;19960;-73
2022/06/20 02:37:58;;;;;;;;;;;;;;;;;;5035827;28;19909;-73
2022/06/20 02:40:25;;;;;;;;;;;;;;;;;;5036418;28;19909;-73
2022/06/20 02:42:51;;;;;;;;;;;;;;;;;;5035389;28;19921;-74
2022/06/20 02:45:17;;;;;;;;;;;;;;;;;;5036333;28;19910;-74
2022/06/20 02:47:42;;;;;;;;;;;;;;;;;;5034396;28;20002;-73
2022/06/20 02:50:08;;;;;;;;;;;;;;;;;;5035695;28;20487;-74
2022/06/20 02:52:34;;;;;;;;;;;;;;;;;;5035918;28;19916;-74
2022/06/20 02:55:00;;;;;;;;;;;;;;;;;;5035596;28;20392;-73
2022/06/20 02:57:26;;;;;;;;;;;;;;;;;;5035526;28;19916;-74
2022/06/20 02:59:52;;;;;;;;;;;;;;;;;;5035517;28;20281;-73
2022/06/20 03:02:18;;;;;;;;;;;;;;;;;;5035486;28;19944;-74
2022/06/20 03:04:44;;;;;;;;;;;;;;;;;;5035677;28;19909;-74
2022/06/20 03:07:10;;;;;;;;;;;;;;;;;;5035321;28;19959;-74
2022/06/20 03:09:35;;;;;;;;;;;;;;;;;;5035249;28;19963;-73
2022/06/20 03:12:01;;;;;;;;;;;;;;;;;;5033996;28;20053;-74
2022/06/20 03:14:27;;;;;;;;;;;;;;;;;;5035196;28;19916;-74
2022/06/20 03:16:54;;;;;;;;;;;;;;;;;;5035464;28;19917;-73
2022/06/20 03:19:20;;;;;;;;;;;;;;;;;;5035085;28;19959;-73
2022/06/20 03:21:46;;;;;;;;;;;;;;;;;;5035349;28;19999;-73
2022/06/20 03:24:12;;;;;;;;;;;;;;;;;;5033444;28;20341;-73
2022/06/20 03:26:38;;;;;;;;;;;;;;;;;;5033717;28;19915;-74
2022/06/20 03:29:03;;;;;;;;;;;;;;;;;;5035243;28;19935;-74
2022/06/20 03:31:29;;;;;;;;;;;;;;;;;;5035241;28;19913;-74
2022/06/20 03:33:55;;;;;;;;;;;;;;;;;;5035408;28;19960;-74
2022/06/20 03:36:21;;;;;;;;;;;;;;;;;;5034813;28;19909;-74
2022/06/20 03:38:47;;;;;;;;;;;;;;;;;;5034936;28;19956;-75
2022/06/20 03:41:13;;;;;;;;;;;;;;;;;;5034508;28;19917;-74
2022/06/20 03:43:39;;;;;;;;;;;;;;;;;;5034939;28;20359;-74
2022/06/20 03:46:05;;;;;;;;;;;;;;;;;;5034618;28;19909;-73
2022/06/20 03:48:31;;;;;;;;;;;;;;;;;;5034781;28;19913;-74
2022/06/20 03:50:57;;;;;;;;;;;;;;;;;;5034524;28;19963;-74
2022/06/20 03:53:23;;;;;;;;;;;;;;;;;;5034492;28;19952;-73
2022/06/20 03:55:49;;;;;;;;;;;;;;;;;;5034425;28;19920;-73
2022/06/20 03:58:15;;;;;;;;;;;;;;;;;;5034400;28;19916;-73
2022/06/20 04:00:41;;;;;;;;;;;;;;;;;;5034620;28;19932;-73
2022/06/20 04:03:07;;;;;;;;;;;;;;;;;;5034573;28;20006;-74
2022/06/20 04:05:33;;;;;;;;;;;;;;;;;;5034290;28;19915;-74
2022/06/20 04:07:59;;;;;;;;;;;;;;;;;;5034453;28;19917;-74
2022/06/20 04:13:09;;;;;;;;;;;;;;;;;;5033902;28;20491;-74
2022/06/20 04:15:35;;;;;;;;;;;;;;;;;;5034106;28;19913;-73
2022/06/20 04:20:46;;;;;;;;;;;;;;;;;;5034322;28;19916;-73
2022/06/20 04:23:12;;;;;;;;;;;;;;;;;;5034254;28;19913;-73
2022/06/20 04:25:38;;;;;;;;;;;;;;;;;;5034485;28;19909;-73
2022/06/20 04:28:04;;;;;;;;;;;;;;;;;;5033846;28;19940;-73
2022/06/20 04:30:30;;;;;;;;;;;;;;;;;;5034128;28;19909;-74
2022/06/20 04:32:56;;;;;;;;;;;;;;;;;;5033865;28;19912;-73
2022/06/20 04:35:22;;;;;;;;;;;;;;;;;;5033619;28;20332;-73
2022/06/20 04:37:48;;;;;;;;;;;;;;;;;;5033307;28;19917;-73
2022/06/20 04:40:14;;;;;;;;;;;;;;;;;;5034070;28;19909;-74
2022/06/20 04:42:40;;;;;;;;;;;;;;;;;;5033399;28;20012;-74
2022/06/20 04:45:05;;;;;;;;;;;;;;;;;;5033751;28;19958;-74
2022/06/20 04:47:31;;;;;;;;;;;;;;;;;;5032391;28;20005;-73
2022/06/20 04:49:57;;;;;;;;;;;;;;;;;;5033646;28;19936;-73
2022/06/20 04:52:23;;;;;;;;;;;;;;;;;;5033944;28;19913;-73
2022/06/20 04:54:49;;;;;;;;;;;;;;;;;;5033898;28;19921;-73
2022/06/20 04:57:15;;;;;;;;;;;;;;;;;;5032301;28;19909;-74
2022/06/20 04:59:41;;;;;;;;;;;;;;;;;;5033609;28;20330;-74
2022/06/20 05:02:07;;;;;;;;;;;;;;;;;;5034092;28;19909;-73
2022/06/20 05:04:33;;;;;;;;;;;;;;;;;;5033504;28;19913;-75
2022/06/20 05:06:58;;;;;;;;;;;;;;;;;;5033512;28;19959;-74
2022/06/20 05:09:24;;;;;;;;;;;;;;;;;;5032171;28;20400;-74
2022/06/20 05:11:50;;;;;;;;;;;;;;;;;;5033477;28;19909;-74
2022/06/20 05:14:16;;;;;;;;;;;;;;;;;;5033721;28;19932;-74
2022/06/20 05:16:42;;;;;;;;;;;;;;;;;;5033410;28;19953;-73
2022/06/20 05:19:08;;;;;;;;;;;;;;;;;;5033428;28;20384;-74
2022/06/20 05:21:34;;;;;;;;;;;;;;;;;;5032068;28;20365;-73
2022/06/20 05:24:01;;;;;;;;;;;;;;;;;;5033932;28;19909;-74
2022/06/20 05:26:27;;;;;;;;;;;;;;;;;;5031846;28;20388;-74
2022/06/20 05:28:53;;;;;;;;;;;;;;;;;;5033265;28;19917;-72
2022/06/20 05:31:19;;;;;;;;;;;;;;;;;;5033584;28;19920;-73
2022/06/20 05:33:45;;;;;;;;;;;;;;;;;;5033321;28;19909;-73
2022/06/20 05:36:11;;;;;;;;;;;;;;;;;;5033523;28;19909;-74
2022/06/20 05:38:37;;;;;;;;;;;;;;;;;;5033164;28;19947;-73
2022/06/20 05:41:04;;;;;;;;;;;;;;;;;;5033270;28;20016;-73
2022/06/20 05:43:30;;;;;;;;;;;;;;;;;;5033786;28;19913;-73
2022/06/20 05:45:55;;;;;;;;;;;;;;;;;;5033161;28;20366;-75
2022/06/20 05:48:21;;;;;;;;;;;;;;;;;;5035684;28;19966;-74
2022/06/20 05:50:47;;;;;;;;;;;;;;;;;;5035484;28;19987;-74
2022/06/20 05:53:13;;;;;;;;;;;;;;;;;;5036745;28;19913;-73
2022/06/20 05:55:41;;;;;;;;;;;;;;;;;;5036728;28;19913;-73
2022/06/20 05:58:06;;;;;;;;;;;;;;;;;;5036950;28;19909;-72
2022/06/20 06:00:33;;;;;;;;;;;;;;;;;;5036900;28;20272;-72
2022/06/20 06:02:59;;;;;;;;;;;;;;;;;;5035266;28;20312;-73
2022/06/20 06:05:25;;;;;;;;;;;;;;;;;;5037112;28;19909;-73
2022/06/20 06:07:51;;;;;;;;;;;;;;;;;;5036409;28;19910;-73
2022/06/20 06:10:19;;;;;;;;;;;;;;;;;;5036982;28;19955;-73
2022/06/20 06:12:45;;;;;;;;;;;;;;;;;;5036649;28;20387;-73
2022/06/20 06:15:11;;;;;;;;;;;;;;;;;;5036611;28;19909;-73
2022/06/20 06:17:37;;;;;;;;;;;;;;;;;;5036296;28;19915;-74
2022/06/20 06:20:03;;;;;;;;;;;;;;;;;;5036270;28;19931;-74
2022/06/20 06:22:29;;;;;;;;;;;;;;;;;;5036191;28;19916;-74
2022/06/20 06:24:55;;;;;;;;;;;;;;;;;;5036710;28;20001;-74
2022/06/20 06:27:20;;;;;;;;;;;;;;;;;;5036403;28;19963;-74
2022/06/20 06:29:46;;;;;;;;;;;;;;;;;;5036009;28;20361;-75
2022/06/20 06:32:12;;;;;;;;;;;;;;;;;;5036040;28;19909;-75
2022/06/20 06:34:38;;;;;;;;;;;;;;;;;;5036037;28;19913;-73
2022/06/20 06:37:04;;;;;;;;;;;;;;;;;;5036188;28;19999;-74
2022/06/20 06:39:30;;;;;;;;;;;;;;;;;;5035831;28;20369;-74
2022/06/20 06:41:56;;;;;;;;;;;;;;;;;;5035817;28;20336;-73
2022/06/20 06:44:22;;;;;;;;;;;;;;;;;;5036094;28;20357;-74
2022/06/20 06:46:48;;;;;;;;;;;;;;;;;;5035776;28;19909;-75
2022/06/20 06:49:14;;;;;;;;;;;;;;;;;;5035932;28;19913;-74
2022/06/20 06:51:40;;;;;;;;;;;;;;;;;;5034113;28;20274;-78
2022/06/20 06:54:06;;;;;;;;;;;;;;;;;;5034790;28;19913;-84
2022/06/20 06:56:31;;;;;;;;;;;;;;;;;;5034369;28;19910;-76
2022/06/20 06:58:57;;;;;;;;;;;;;;;;;;5035448;28;20353;-82
2022/06/20 07:01:23;;;;;;;;;;;;;;;;;;5035534;28;19952;-82
2022/06/20 07:03:49;;;;;;;;;;;;;;;;;;5034952;28;19960;-74
2022/06/20 07:06:15;;;;;;;;;;;;;;;;;;5035083;28;20062;-80
2022/06/20 07:08:41;;;;;;;;;;;;;;;;;;5035919;28;19913;-80
2022/06/20 07:11:07;;;;;;;;;;;;;;;;;;5035635;28;20043;-80
2022/06/20 07:13:33;;;;;;;;;;;;;;;;;;5035333;28;19916;-81
2022/06/20 07:15:59;;;;;;;;;;;;;;;;;;5033755;28;19917;-78
2022/06/20 07:18:25;;;;;;;;;;;;;;;;;;5035216;28;19916;-74
2022/06/20 07:20:51;;;;;;;;;;;;;;;;;;5034782;28;20289;-74
2022/06/20 07:23:17;;;;;;;;;;;;;;;;;;5033829;28;19911;-80
2022/06/20 07:25:43;;;;;;;;;;;;;;;;;;5033998;28;19952;-77
2022/06/20 07:28:09;;;;;;;;;;;;;;;;;;5034643;28;19917;-75
2022/06/20 07:30:35;;;;;;;;;;;;;;;;;;5034845;28;20372;-83
2022/06/20 07:33:01;;;;;;;;;;;;;;;;;;5035282;28;19916;-77
2022/06/20 07:35:26;;;;;;;;;;;;;;;;;;5034441;28;20285;-79
2022/06/20 07:37:52;;;;;;;;;;;;;;;;;;5034697;28;19909;-79
2022/06/20 07:40:19;;;;;;;;;;;;;;;;;;5031738;28;20354;-76
2022/06/20 07:42:45;;;;;;;;;;;;;;;;;;5016686;28;19928;-75
2022/06/20 07:45:11;;;;;;;;;;;;;;;;;;5029433;28;19913;-79
2022/06/20 07:47:37;;;;;;;;;;;;;;;;;;5034490;28;19916;-78
2022/06/20 07:50:03;;;;;;;;;;;;;;;;;;5034857;28;19913;-77
2022/06/20 07:52:29;;;;;;;;;;;;;;;;;;5034820;28;19909;-75
2022/06/20 07:54:56;;;;;;;;;;;;;;;;;;5034653;28;19909;-76
2022/06/20 07:57:22;;;;;;;;;;;;;;;;;;5034708;28;20312;-74
2022/06/20 07:59:48;;;;;;;;;;;;;;;;;;5034686;28;19909;-80
2022/06/20 08:02:14;;;;;;;;;;;;;;;;;;5034585;28;19915;-79
2022/06/20 08:04:40;;;;;;;;;;;;;;;;;;5035107;28;20369;-83
2022/06/20 08:07:06;;;;;;;;;;;;;;;;;;5032355;28;20012;-81
2022/06/20 08:09:31;;;;;;;;;;;;;;;;;;5032120;28;19964;-74
2022/06/20 08:11:57;;;;;;;;;;;;;;;;;;5032493;28;20336;-80
2022/06/20 08:14:23;;;;;;;;;;;;;;;;;;5033659;28;19909;-79
2022/06/20 08:16:49;;;;;;;;;;;;;;;;;;5032232;28;19936;-81
2022/06/20 08:19:15;;;;;;;;;;;;;;;;;;5033985;28;20039;-84
2022/06/20 08:21:41;;;;;;;;;;;;;;;;;;5033941;28;20365;-81
2022/06/20 08:24:07;;;;;;;;;;;;;;;;;;5033591;28;19916;-74
2022/06/20 08:26:33;;;;;;;;;;;;;;;;;;5032253;28;19913;-81
2022/06/20 08:28:59;;;;;;;;;;;;;;;;;;5034477;28;20277;-78
2022/06/20 08:31:25;;;;;;;;;;;;;;;;;;5034010;28;19916;-80
2022/06/20 08:33:51;;;;;;;;;;;;;;;;;;5034267;28;19979;-83
2022/06/20 08:36:17;;;;;;;;;;;;;;;;;;5033483;28;19916;-78
2022/06/20 08:38:43;;;;;;;;;;;;;;;;;;5033959;28;19909;-76
2022/06/20 08:41:08;;;;;;;;;;;;;;;;;;5034216;28;20456;-80
2022/06/20 08:43:34;;;;;;;;;;;;;;;;;;5033868;28;19909;-80
2022/06/20 08:46:00;;;;;;;;;;;;;;;;;;5033889;28;20385;-84
2022/06/20 08:48:26;;;;;;;;;;;;;;;;;;5034799;28;19920;-81
2022/06/20 08:50:52;;;;;;;;;;;;;;;;;;5033783;28;19914;-80
2022/06/20 08:53:18;;;;;;;;;;;;;;;;;;5033900;28;19909;-82
2022/06/20 08:55:44;;;;;;;;;;;;;;;;;;5033703;28;19916;-77
2022/06/20 08:58:10;;;;;;;;;;;;;;;;;;5033658;28;19913;-77
2022/06/20 09:00:36;;;;;;;;;;;;;;;;;;5033911;28;19913;-79
2022/06/20 09:03:02;;;;;;;;;;;;;;;;;;5033449;28;20385;-79
2022/06/20 09:05:28;;;;;;;;;;;;;;;;;;5033126;28;19909;-79
2022/06/20 09:07:54;;;;;;;;;;;;;;;;;;5027105;28;20441;-79
2022/06/20 09:10:20;;;;;;;;;;;;;;;;;;5032231;28;19913;-79
2022/06/20 09:12:46;;;;;;;;;;;;;;;;;;5033582;28;19909;-80
2022/06/20 09:15:11;;;;;;;;;;;;;;;;;;5033727;28;19909;-80
2022/06/20 09:17:37;;;;;;;;;;;;;;;;;;5033405;28;19909;-80
2022/06/20 09:20:03;;;;;;;;;;;;;;;;;;5033455;28;19917;-78
2022/06/20 09:22:29;;;;;;;;;;;;;;;;;;5034032;28;20346;-77
2022/06/20 09:24:55;;;;;;;;;;;;;;;;;;5037606;28;19916;-73
2022/06/20 09:27:21;;;;;;;;;;;;;;;;;;5037571;28;20285;-82
2022/06/20 09:29:47;;;;;;;;;;;;;;;;;;5035929;28;19960;-77
2022/06/20 09:32:13;;;;;;;;;;;;;;;;;;5037217;28;20293;-78
2022/06/20 09:34:39;;;;;;;;;;;;;;;;;;5034589;28;19913;-81
2022/06/20 09:37:04;;;;;;;;;;;;;;;;;;5037165;28;20328;-77
2022/06/20 09:39:30;;;;;;;;;;;;;;;;;;5036945;28;19940;-77
2022/06/20 09:41:57;;;;;;;;;;;;;;;;;;5036994;28;20384;-77
2022/06/20 09:44:23;;;;;;;;;;;;;;;;;;5036393;28;19913;-83
2022/06/20 09:46:48;;;;;;;;;;;;;;;;;;5036367;28;20377;-80
2022/06/20 09:49:14;;;;;;;;;;;;;;;;;;5036907;28;19921;-79
2022/06/20 09:51:40;;;;;;;;;;;;;;;;;;5037035;28;19952;-80
2022/06/20 09:54:06;;;;;;;;;;;;;;;;;;5037471;28;20350;-80
2022/06/20 09:56:33;;;;;;;;;;;;;;;;;;5037133;28;19956;-82
2022/06/20 09:59:01;;;;;;;;;;;;;;;;;;5036839;28;19909;-81
2022/06/20 10:01:27;;;;;;;;;;;;;;;;;;5036394;28;19913;-81
2022/06/20 10:03:52;;;;;;;;;;;;;;;;;;5036971;28;19909;-82
2022/06/20 10:06:18;;;;;;;;;;;;;;;;;;5036537;28;20404;-81
2022/06/20 10:08:44;;;;;;;;;;;;;;;;;;5036995;28;20369;-79
2022/06/20 10:11:10;;;;;;;;;;;;;;;;;;5036748;28;19913;-78
2022/06/20 10:13:37;;;;;;;;;;;;;;;;;;5036459;28;19916;-79
2022/06/20 10:16:03;;;;;;;;;;;;;;;;;;5034536;28;19913;-79
2022/06/20 10:18:29;;;;;;;;;;;;;;;;;;5034340;28;20300;-77
2022/06/20 10:20:54;;;;;;;;;;;;;;;;;;5035965;28;19967;-77
2022/06/20 10:23:20;;;;;;;;;;;;;;;;;;5036493;28;20301;-78
2022/06/20 10:25:46;;;;;;;;;;;;;;;;;;5036245;28;19931;-80
2022/06/20 10:28:12;;;;;;;;;;;;;;;;;;5034809;28;19963;-79
2022/06/20 10:30:38;;;;;;;;;;;;;;;;;;5036364;28;19909;-75
2022/06/20 10:33:04;;;;;;;;;;;;;;;;;;5035446;28;19909;-75
2022/06/20 10:35:31;;;;;;;;;;;;;;;;;;5033706;28;19913;-75
2022/06/20 10:37:57;;;;;;;;;;;;;;;;;;5035943;28;19909;-75
2022/06/20 10:40:23;;;;;;;;;;;;;;;;;;5036368;28;19958;-75
2022/06/20 10:42:49;;;;;;;;;;;;;;;;;;5035528;28;20377;-75
2022/06/20 10:45:15;;;;;;;;;;;;;;;;;;5036128;28;19909;-75
2022/06/20 10:47:40;;;;;;;;;;;;;;;;;;5035773;28;19909;-75
2022/06/20 10:50:06;;;;;;;;;;;;;;;;;;5035702;28;19913;-75
2022/06/20 10:52:32;;;;;;;;;;;;;;;;;;5035714;28;19916;-75
2022/06/20 10:54:58;;;;;;;;;;;;;;;;;;5035963;28;20262;-74
2022/06/20 10:57:24;;;;;;;;;;;;;;;;;;5035850;28;19909;-75
2022/06/20 10:59:50;;;;;;;;;;;;;;;;;;5035624;28;19913;-74
2022/06/20 11:02:16;;;;;;;;;;;;;;;;;;5036085;28;19909;-75
2022/06/20 11:04:42;;;;;;;;;;;;;;;;;;5035773;28;19909;-75
2022/06/20 11:07:09;;;;;;;;;;;;;;;;;;5035408;28;20362;-74
2022/06/20 11:09:35;;;;;;;;;;;;;;;;;;5035356;28;19913;-75
2022/06/20 11:12:01;;;;;;;;;;;;;;;;;;5035600;28;19909;-75
2022/06/20 11:14:27;;;;;;;;;;;;;;;;;;5034067;28;19963;-75
2022/06/20 11:16:53;;;;;;;;;;;;;;;;;;5035291;28;19913;-75
2022/06/20 11:19:19;;;;;;;;;;;;;;;;;;5035224;28;19916;-75
2022/06/20 11:21:44;;;;;;;;;;;;;;;;;;5035465;28;20011;-76
2022/06/20 11:24:11;;;;;;;;;;;;;;;;;;5035117;28;20361;-75
2022/06/20 11:26:37;;;;;;;;;;;;;;;;;;5033646;28;19955;-75
2022/06/20 11:29:03;;;;;;;;;;;;;;;;;;5034964;28;19913;-76
2022/06/20 11:31:29;;;;;;;;;;;;;;;;;;5034965;28;19909;-76
2022/06/20 11:34:01;;;;;;;;;;;;;;;;;;5033638;28;19916;-75
2022/06/20 11:36:27;;;;;;;;;;;;;;;;;;5035389;28;19909;-75
2022/06/20 11:38:53;;;;;;;;;;;;;;;;;;5034752;28;19909;-75
2022/06/20 11:41:19;;;;;;;;;;;;;;;;;;5034773;28;20003;-75
2022/06/20 11:43:45;;;;;;;;;;;;;;;;;;5034965;28;20055;-75
2022/06/20 11:46:11;;;;;;;;;;;;;;;;;;5034456;28;20362;-74
2022/06/20 11:48:37;;;;;;;;;;;;;;;;;;5034532;28;20415;-74
2022/06/20 11:51:03;;;;;;;;;;;;;;;;;;5034569;28;19932;-75
2022/06/20 11:53:29;;;;;;;;;;;;;;;;;;5035137;28;19909;-74
2022/06/20 11:55:55;;;;;;;;;;;;;;;;;;5034504;28;19920;-76
2022/06/20 11:58:21;;;;;;;;;;;;;;;;;;5033177;28;19915;-75
2022/06/20 12:00:46;;;;;;;;;;;;;;;;;;5034436;28;20423;-75
2022/06/20 12:03:12;;;;;;;;;;;;;;;;;;5034377;28;19909;-74
2022/06/20 12:05:38;;;;;;;;;;;;;;;;;;5033069;28;20254;-75
2022/06/20 12:08:04;;;;;;;;;;;;;;;;;;5032881;28;19916;-81
2022/06/20 12:10:30;;;;;;;;;;;;;;;;;;5032724;28;19917;-83
2022/06/20 12:12:56;;;;;;;;;;;;;;;;;;5034123;28;20439;-83
2022/06/20 12:15:22;;;;;;;;;;;;;;;;;;5019494;28;19996;-81
2022/06/20 12:17:48;;;;;;;;;;;;;;;;;;5013100;28;19931;-83
2022/06/20 12:25:43;;;;;;;;;;;;;;;;;;5021194;28;20055;-82
2022/06/20 12:28:09;;;;;;;;;;;;;;;;;;5032540;28;20267;-79
2022/06/20 12:30:35;;;;;;;;;;;;;;;;;;5033962;28;19938;-77
2022/06/20 12:33:01;;;;;;;;;;;;;;;;;;5034427;28;19916;-82
2022/06/20 12:35:27;;;;;;;;;;;;;;;;;;5033932;28;19959;-77
2022/06/20 12:37:53;;;;;;;;;;;;;;;;;;5034135;28;19913;-80
2022/06/20 12:40:19;;;;;;;;;;;;;;;;;;5032505;28;19909;-79
2022/06/20 12:42:44;;;;;;;;;;;;;;;;;;5033485;28;19921;-80
2022/06/20 12:45:10;;;;;;;;;;;;;;;;;;5034067;28;19913;-80
2022/06/20 12:47:36;;;;;;;;;;;;;;;;;;5034011;28;20362;-80
2022/06/20 12:50:02;;;;;;;;;;;;;;;;;;5034233;28;19972;-76
2022/06/20 12:52:28;;;;;;;;;;;;;;;;;;5033704;28;20332;-75
2022/06/20 12:54:54;;;;;;;;;;;;;;;;;;5033076;28;19960;-80
2022/06/20 12:57:20;;;;;;;;;;;;;;;;;;5036644;28;19913;-80
2022/06/20 12:59:46;;;;;;;;;;;;;;;;;;5039123;28;19916;-88
2022/06/20 13:02:12;;;;;;;;;;;;;;;;;;5033175;28;20385;-85
2022/06/20 13:04:38;;;;;;;;;;;;;;;;;;5019479;28;19909;-84
2022/06/20 13:07:04;;;;;;;;;;;;;;;;;;5020524;28;20305;-80
2022/06/20 13:09:29;;;;;;;;;;;;;;;;;;5037855;28;19921;-83
2022/06/20 13:11:55;;;;;;;;;;;;;;;;;;5040256;28;19932;-84
2022/06/20 13:14:21;;;;;;;;;;;;;;;;;;5025863;28;19914;-76
2022/06/20 13:16:47;;;;;;;;;;;;;;;;;;5020401;28;19916;-80
2022/06/20 13:19:13;;;;;;;;;;;;;;;;;;5019103;28;20407;-75
2022/06/20 13:21:39;;;;;;;;;;;;;;;;;;5020718;28;19953;-80
2022/06/20 13:24:05;;;;;;;;;;;;;;;;;;5020019;28;19959;-79
2022/06/20 13:26:31;;;;;;;;;;;;;;;;;;5020273;28;20258;-79
2022/06/20 13:28:57;;;;;;;;;;;;;;;;;;5018918;28;19967;-79
2022/06/20 13:31:23;;;;;;;;;;;;;;;;;;5020551;28;19909;-81
2022/06/20 13:33:49;;;;;;;;;;;;;;;;;;5020182;28;19909;-79
2022/06/20 13:36:15;;;;;;;;;;;;;;;;;;5034648;28;19913;-76
2022/06/20 13:38:41;;;;;;;;;;;;;;;;;;5039891;28;19909;-81
2022/06/20 13:41:07;;;;;;;;;;;;;;;;;;5039642;28;20250;-81
2022/06/20 13:43:33;;;;;;;;;;;;;;;;;;5039914;28;19909;-81
2022/06/20 13:45:59;;;;;;;;;;;;;;;;;;5038603;28;19963;-81
2022/06/20 13:48:25;;;;;;;;;;;;;;;;;;5021586;28;19924;-78
2022/06/20 13:50:51;;;;;;;;;;;;;;;;;;5020046;28;19909;-80
2022/06/20 13:53:17;;;;;;;;;;;;;;;;;;5018692;28;19917;-80
2022/06/20 13:55:43;;;;;;;;;;;;;;;;;;5019877;28;19916;-83
2022/06/20 13:58:09;;;;;;;;;;;;;;;;;;5020393;28;20389;-80
2022/06/20 14:00:35;;;;;;;;;;;;;;;;;;5020192;28;19909;-80
2022/06/20 14:03:01;;;;;;;;;;;;;;;;;;5032754;28;19996;-82
2022/06/20 14:05:27;;;;;;;;;;;;;;;;;;5038198;28;19909;-80
2022/06/20 14:07:52;;;;;;;;;;;;;;;;;;5039248;28;19959;-81
2022/06/20 14:10:18;;;;;;;;;;;;;;;;;;5020007;28;20441;-78
2022/06/20 14:12:44;;;;;;;;;;;;;;;;;;5016744;28;19916;-85
2022/06/20 14:15:10;;;;;;;;;;;;;;;;;;5017317;28;20321;-80
2022/06/20 14:17:36;;;;;;;;;;;;;;;;;;5016904;28;19909;-81
2022/06/20 14:20:02;;;;;;;;;;;;;;;;;;5016742;28;19932;-80
2022/06/20 14:22:31;;;;;;;;;;;;;;;;;;5016742;28;20004;-79
2022/06/20 14:24:57;;;;;;;;;;;;;;;;;;5027090;28;19913;-79
2022/06/20 14:27:23;;;;;;;;;;;;;;;;;;5034352;28;20365;-81
2022/06/20 14:29:49;;;;;;;;;;;;;;;;;;5032178;28;19918;-82
2022/06/20 14:32:15;;;;;;;;;;;;;;;;;;5016383;28;20286;-82
2022/06/20 14:35:20;;;;;;;;;;;;;;;;;;5016328;28;19952;-77
2022/06/20 14:37:27;;;;;;;;;;;;;;;;;;5016029;28;19909;-77
2022/06/20 14:39:53;;;;;;;;;;;;;;;;;;5016199;28;20290;-77
2022/06/20 14:42:18;;;;;;;;;;;;;;;;;;5016222;28;19921;-77
2022/06/20 14:44:44;;;;;;;;;;;;;;;;;;5022845;28;20349;-76
2022/06/20 14:47:11;;;;;;;;;;;;;;;;;;5034863;28;19982;-75
2022/06/20 14:49:37;;;;;;;;;;;;;;;;;;5035129;28;19913;-74
2022/06/20 14:52:03;;;;;;;;;;;;;;;;;;5035590;28;19916;-76
2022/06/20 14:54:29;;;;;;;;;;;;;;;;;;5035449;28;19909;-75
2022/06/20 14:56:55;;;;;;;;;;;;;;;;;;5035614;28;19913;-74
2022/06/20 14:59:21;;;;;;;;;;;;;;;;;;5035630;28;19909;-75
2022/06/20 15:01:48;;;;;;;;;;;;;;;;;;5035451;28;20383;-83
2022/06/20 15:04:14;;;;;;;;;;;;;;;;;;5034707;28;20464;-78
2022/06/20 15:06:39;;;;;;;;;;;;;;;;;;5033163;28;19920;-74
2022/06/20 15:09:05;;;;;;;;;;;;;;;;;;5032555;28;19917;-80
2022/06/20 15:11:31;;;;;;;;;;;;;;;;;;5032705;28;19913;-80
2022/06/20 15:13:57;;;;;;;;;;;;;;;;;;5030912;28;19998;-79
2022/06/20 15:16:24;;;;;;;;;;;;;;;;;;5033929;28;20462;-75
2022/06/20 15:18:50;;;;;;;;;;;;;;;;;;5035231;28;19995;-75
2022/06/20 15:21:16;;;;;;;;;;;;;;;;;;5035477;28;19909;-76
2022/06/20 15:23:42;;;;;;;;;;;;;;;;;;5035436;28;19909;-75
2022/06/20 15:26:08;;;;;;;;;;;;;;;;;;5035118;28;20381;-75
2022/06/20 15:28:34;;;;;;;;;;;;;;;;;;5034912;28;19940;-76
2022/06/20 15:31:00;;;;;;;;;;;;;;;;;;5035274;28;19959;-77
2022/06/20 15:33:25;;;;;;;;;;;;;;;;;;5034905;28;19909;-76
2022/06/20 15:35:52;;;;;;;;;;;;;;;;;;5034914;28;20374;-76
2022/06/20 15:38:18;;;;;;;;;;;;;;;;;;5034799;28;19909;-76
2022/06/20 15:40:45;;;;;;;;;;;;;;;;;;5034873;28;19958;-77
2022/06/20 15:43:11;;;;;;;;;;;;;;;;;;5033279;28;20011;-76
2022/06/20 15:45:36;;;;;;;;;;;;;;;;;;5034740;28;20364;-75
2022/06/20 15:48:02;;;;;;;;;;;;;;;;;;5034615;28;19909;-75
2022/06/20 15:50:28;;;;;;;;;;;;;;;;;;5034899;28;19909;-74
2022/06/20 15:52:54;;;;;;;;;;;;;;;;;;5034535;28;19916;-76
2022/06/20 15:55:20;;;;;;;;;;;;;;;;;;5034532;28;19913;-76
2022/06/20 15:57:46;;;;;;;;;;;;;;;;;;5034487;28;19909;-75
2022/06/20 16:00:12;;;;;;;;;;;;;;;;;;5034745;28;20003;-74
2022/06/20 16:02:38;;;;;;;;;;;;;;;;;;5034368;28;19963;-76
2022/06/20 16:05:04;;;;;;;;;;;;;;;;;;5034640;28;19924;-75
2022/06/20 16:07:30;;;;;;;;;;;;;;;;;;5034315;28;20077;-75
2022/06/20 16:09:56;;;;;;;;;;;;;;;;;;5032950;28;20005;-75
2022/06/20 16:12:22;;;;;;;;;;;;;;;;;;5032967;28;19945;-75
2022/06/20 16:14:48;;;;;;;;;;;;;;;;;;5034202;28;19909;-74
2022/06/20 16:17:13;;;;;;;;;;;;;;;;;;5034411;28;19959;-75
2022/06/20 16:19:39;;;;;;;;;;;;;;;;;;5034391;28;19909;-75
2022/06/20 16:22:05;;;;;;;;;;;;;;;;;;5034647;28;19909;-74
2022/06/20 16:24:31;;;;;;;;;;;;;;;;;;5034040;28;20288;-74
2022/06/20 16:26:57;;;;;;;;;;;;;;;;;;5034035;28;19909;-76
2022/06/20 16:29:23;;;;;;;;;;;;;;;;;;5034215;28;19917;-75
2022/06/20 16:31:49;;;;;;;;;;;;;;;;;;5033143;28;20007;-74
2022/06/20 16:34:15;;;;;;;;;;;;;;;;;;5032594;28;19916;-75
2022/06/20 16:36:41;;;;;;;;;;;;;;;;;;5033840;28;19955;-75
2022/06/20 16:39:07;;;;;;;;;;;;;;;;;;5034344;28;20370;-75
2022/06/20 16:41:32;;;;;;;;;;;;;;;;;;5033764;28;19925;-74
2022/06/20 16:43:58;;;;;;;;;;;;;;;;;;5033721;28;20331;-79
2022/06/20 16:46:24;;;;;;;;;;;;;;;;;;5032348;28;19916;-78
2022/06/20 16:48:50;;;;;;;;;;;;;;;;;;5033655;28;19924;-76
2022/06/20 16:51:16;;;;;;;;;;;;;;;;;;5033878;28;19909;-75
2022/06/20 16:53:42;;;;;;;;;;;;;;;;;;5033604;28;19917;-75